Terminal Aerodrome Forecast
Issued by NWS

Home | Current Version | Previous Version | Text Only | Print | Product List | Glossary On
Versions: 1 2 3 4 5 6 7 8 9 10 11 12 13 14 15 16 17 18 19 20 21
000
FTUS44 KMAF 021901 AAA
TAFFST
TAF AMD
KFST 021901Z 0219/0318 12009G16KT P6SM SCT050 SCT250
     FM030200 16013KT P6SM FEW200
     FM031200 17008KT P6SM SKC
     FM031600 14009KT P6SM SCT060=

USA.gov is the U.S. government's official web portal to all federal, state and local government web resources and services.